createdAt,value
2017-01-22T00:00:00.806Z,61.14
2017-01-22T00:00:22.544Z,61.18
2017-01-22T00:01:25.639Z,61.33
2017-01-22T00:01:47.379Z,61.37
2017-01-22T00:02:13.891Z,61.26
2017-01-22T00:02:35.618Z,61.44
2017-01-22T00:03:02.107Z,61.49
2017-01-22T00:03:23.824Z,61.41
2017-01-22T00:03:45.568Z,61.35
2017-01-22T00:04:12.099Z,61.24
2017-01-22T00:04:33.811Z,61.23
2017-01-22T00:04:55.523Z,61.23
2017-01-22T00:05:22.019Z,61.22
2017-01-22T00:05:43.735Z,61.14
2017-01-22T00:06:10.218Z,61.21
2017-01-22T00:06:31.924Z,61.14
2017-01-22T00:06:53.631Z,61.15
2017-01-22T00:07:56.763Z,61.40
2017-01-22T00:08:18.474Z,61.61
2017-01-22T00:08:40.200Z,61.87
2017-01-22T00:09:01.911Z,61.77
2017-01-22T00:09:23.639Z,61.68
2017-01-22T00:09:52.333Z,61.61
2017-01-22T00:10:14.052Z,61.59
2017-01-22T00:10:35.780Z,61.42
2017-01-22T00:11:43.079Z,61.36
2017-01-22T00:12:09.579Z,61.33
2017-01-22T00:12:36.063Z,61.40
2017-01-22T00:12:57.789Z,61.25
2017-01-22T00:13:24.293Z,61.16
2017-01-22T00:13:46.007Z,61.25
2017-01-22T00:14:07.729Z,61.35
2017-01-22T00:14:34.199Z,61.32
2017-01-22T00:14:55.992Z,61.54
2017-01-22T00:15:22.480Z,61.50
2017-01-22T00:15:44.212Z,61.65
2017-01-22T00:16:10.695Z,61.70
2017-01-22T00:16:32.401Z,61.74
2017-01-22T00:16:58.877Z,61.91
2017-01-22T00:17:20.605Z,61.81
2017-01-22T00:17:47.117Z,61.70
2017-01-22T00:18:08.846Z,61.73
2017-01-22T00:18:37.745Z,61.64
2017-01-22T00:18:59.476Z,61.55
2017-01-22T00:19:21.185Z,61.50
2017-01-22T00:19:52.457Z,61.37
2017-01-22T00:20:14.199Z,61.65
2017-01-22T00:20:45.457Z,61.37
2017-01-22T00:21:07.179Z,61.37
2017-01-22T00:21:33.672Z,61.29
2017-01-22T00:21:55.399Z,61.19
2017-01-22T00:22:17.110Z,61.32
2017-01-22T00:22:38.823Z,61.40
2017-01-22T00:23:00.550Z,61.20
2017-01-22T00:23:22.262Z,61.13
2017-01-22T00:23:43.979Z,61.13
2017-01-22T00:24:05.806Z,61.27
2017-01-22T00:25:13.089Z,61.40
2017-01-22T00:25:34.798Z,61.42
2017-01-22T00:25:56.516Z,61.53
2017-01-22T00:26:23.000Z,61.44
2017-01-22T00:26:44.721Z,61.33
2017-01-22T00:27:06.462Z,61.40
2017-01-22T00:27:37.716Z,61.37
2017-01-22T00:28:04.193Z,61.22
2017-01-22T00:28:30.685Z,61.21
2017-01-22T00:28:52.392Z,61.20
2017-01-22T00:29:18.880Z,61.27
2017-01-22T00:29:40.584Z,61.28
2017-01-22T00:30:07.073Z,61.42
2017-01-22T00:30:28.820Z,61.47
2017-01-22T00:31:40.897Z,61.41
2017-01-22T00:32:02.625Z,61.38
2017-01-22T00:32:29.118Z,61.37
2017-01-22T00:32:50.827Z,61.28
2017-01-22T00:33:12.548Z,61.33
2017-01-22T00:33:34.248Z,61.30
2017-01-22T00:33:55.963Z,61.24
2017-01-22T00:34:20.096Z,61.28
2017-01-22T00:34:41.809Z,61.41
2017-01-22T00:35:03.524Z,61.53
2017-01-22T00:35:25.249Z,61.45
2017-01-22T00:35:51.735Z,61.48
2017-01-22T00:36:13.454Z,61.42
2017-01-22T00:36:39.953Z,61.45
2017-01-22T00:37:01.673Z,61.35
2017-01-22T00:37:23.380Z,61.31
2017-01-22T00:38:26.466Z,61.57
2017-01-22T00:38:48.171Z,61.67
2017-01-22T00:39:09.899Z,61.80
2017-01-22T00:39:41.157Z,61.64
2017-01-22T00:40:02.862Z,61.59
2017-01-22T00:40:24.574Z,61.59
2017-01-22T00:40:46.286Z,61.49
2017-01-22T00:41:08.016Z,61.39
2017-01-22T00:41:29.755Z,61.39
2017-01-22T00:41:58.440Z,61.29
2017-01-22T00:42:20.142Z,61.23
2017-01-22T00:43:22.667Z,61.23
2017-01-22T00:43:49.194Z,61.44
2017-01-22T00:44:10.891Z,61.50
2017-01-22T00:44:32.631Z,61.46
2017-01-22T00:45:03.873Z,61.66
2017-01-22T00:45:25.589Z,61.71
2017-01-22T00:45:47.298Z,61.73
2017-01-22T00:46:18.552Z,61.74
2017-01-22T00:46:40.299Z,61.74
2017-01-22T00:47:47.643Z,62.02
2017-01-22T00:48:09.378Z,61.79
2017-01-22T00:48:40.707Z,61.78
2017-01-22T00:49:02.379Z,61.83
2017-01-22T00:49:33.640Z,61.83
2017-01-22T00:49:55.348Z,61.93
2017-01-22T00:50:17.044Z,61.86
2017-01-22T00:50:38.747Z,61.78
2017-01-22T00:51:00.532Z,61.82
2017-01-22T00:51:22.232Z,61.81
2017-01-22T00:51:43.989Z,61.73
2017-01-22T00:52:05.707Z,61.69
2017-01-22T00:52:27.589Z,61.74
2017-01-22T00:52:58.689Z,61.92
2017-01-22T00:53:20.424Z,61.97
2017-01-22T00:53:42.223Z,61.78
2017-01-22T00:54:08.715Z,61.73
2017-01-22T00:54:30.417Z,61.83
2017-01-22T00:54:52.133Z,61.82
2017-01-22T00:55:18.616Z,61.91
2017-01-22T00:55:40.344Z,61.94
2017-01-22T00:56:02.056Z,61.89
2017-01-22T00:56:23.761Z,61.85
2017-01-22T00:56:45.489Z,61.73
2017-01-22T00:57:07.209Z,61.72
2017-01-22T00:57:33.700Z,61.86
2017-01-22T00:57:55.416Z,61.85
2017-01-22T00:58:17.147Z,61.91
2017-01-22T00:58:43.637Z,61.69
2017-01-22T00:59:05.360Z,61.60
2017-01-22T00:59:31.844Z,61.80
2017-01-22T00:59:53.649Z,61.92
2017-01-22T01:00:15.371Z,61.92
2017-01-22T01:00:37.080Z,61.96
2017-01-22T01:00:58.802Z,61.81
2017-01-22T01:01:30.123Z,61.79
2017-01-22T01:01:51.869Z,61.84
2017-01-22T01:02:18.357Z,61.91
2017-01-22T01:02:40.066Z,61.96
2017-01-22T01:03:01.768Z,62.05
2017-01-22T01:03:28.261Z,61.97
2017-01-22T01:03:50.005Z,61.95
2017-01-22T01:04:11.761Z,61.94
2017-01-22T01:04:38.281Z,61.95
2017-01-22T01:05:00.031Z,62.10
2017-01-22T01:05:21.730Z,62.15
2017-01-22T01:05:43.487Z,62.18
2017-01-22T01:06:05.214Z,62.28
2017-01-22T01:06:53.464Z,62.28
2017-01-22T01:07:19.984Z,62.30
2017-01-22T01:07:41.692Z,62.23
2017-01-22T01:08:03.413Z,62.28
2017-01-22T01:08:25.122Z,62.35
2017-01-22T01:08:49.042Z,62.35
2017-01-22T01:09:10.754Z,62.40
2017-01-22T01:09:32.485Z,62.40
2017-01-22T01:09:54.206Z,62.33
2017-01-22T01:10:20.699Z,62.33
2017-01-22T01:10:42.408Z,62.18
2017-01-22T01:11:04.142Z,62.09
2017-01-22T01:11:30.639Z,62.05
2017-01-22T01:11:52.402Z,62.03
2017-01-22T01:12:14.170Z,62.06
2017-01-22T01:13:17.266Z,62.02
2017-01-22T01:13:38.975Z,61.96
2017-01-22T01:14:00.687Z,62.02
2017-01-22T01:14:31.971Z,62.28
2017-01-22T01:14:53.692Z,62.35
2017-01-22T01:15:15.413Z,62.37
2017-01-22T01:15:46.694Z,62.28
2017-01-22T01:16:13.247Z,62.35
2017-01-22T01:16:44.494Z,62.38
2017-01-22T01:17:06.198Z,62.56
2017-01-22T01:17:27.912Z,62.56
2017-01-22T01:17:59.169Z,62.41
2017-01-22T01:18:20.869Z,62.40
2017-01-22T01:18:42.590Z,62.32
2017-01-22T01:19:04.313Z,62.27
2017-01-22T01:19:26.092Z,62.30
2017-01-22T01:19:57.372Z,62.22
2017-01-22T01:20:19.093Z,62.17
2017-01-22T01:20:45.583Z,62.25
2017-01-22T01:21:07.353Z,62.32
2017-01-22T01:21:29.094Z,62.16
2017-01-22T01:21:55.571Z,62.26
2017-01-22T01:22:17.333Z,62.31
2017-01-22T01:22:49.199Z,62.45
2017-01-22T01:23:10.908Z,62.44
2017-01-22T01:24:09.222Z,62.49
2017-01-22T01:24:30.925Z,62.35
2017-01-22T01:25:38.219Z,62.31
2017-01-22T01:25:59.932Z,62.33
2017-01-22T01:27:07.221Z,62.05
2017-01-22T01:27:28.950Z,62.16
2017-01-22T01:27:50.712Z,62.02
2017-01-22T01:28:21.982Z,61.95
2017-01-22T01:28:43.701Z,61.97
2017-01-22T01:29:10.188Z,61.88
2017-01-22T01:29:31.908Z,61.91
2017-01-22T01:29:53.633Z,62.13
2017-01-22T01:30:15.404Z,62.28
2017-01-22T01:30:39.625Z,62.40
2017-01-22T01:31:10.891Z,62.50
2017-01-22T01:31:32.613Z,62.52
2017-01-22T01:31:59.096Z,62.54
2017-01-22T01:32:20.806Z,62.53
2017-01-22T01:33:23.343Z,62.32
2017-01-22T01:33:45.075Z,62.33
2017-01-22T01:34:06.796Z,62.31
2017-01-22T01:34:33.292Z,62.28
2017-01-22T01:34:55.004Z,62.31
2017-01-22T01:35:58.100Z,62.32
2017-01-22T01:36:19.801Z,62.43
2017-01-22T01:36:41.536Z,62.40
2017-01-22T01:37:08.056Z,62.37
2017-01-22T01:37:29.788Z,62.32
2017-01-22T01:38:32.882Z,62.28
2017-01-22T01:38:54.597Z,62.27
2017-01-22T01:39:16.303Z,62.11
2017-01-22T01:39:42.783Z,61.95
2017-01-22T01:40:09.330Z,61.82
2017-01-22T01:40:31.071Z,61.78
2017-01-22T01:40:52.790Z,61.78
2017-01-22T01:41:14.524Z,61.85
2017-01-22T01:41:41.007Z,61.97
2017-01-22T01:42:02.764Z,62.08
2017-01-22T01:42:34.025Z,62.02
2017-01-22T01:42:55.732Z,62.02
2017-01-22T01:43:26.981Z,61.94
2017-01-22T01:43:48.694Z,61.85
2017-01-22T01:44:19.950Z,61.94
2017-01-22T01:44:41.663Z,61.83
2017-01-22T01:45:03.372Z,61.85
2017-01-22T01:45:34.620Z,61.80
2017-01-22T01:45:56.344Z,61.74
2017-01-22T01:46:18.066Z,61.71
2017-01-22T01:46:44.566Z,61.63
2017-01-22T01:47:06.268Z,61.65
2017-01-22T01:47:32.773Z,61.80
2017-01-22T01:47:54.496Z,61.90
2017-01-22T01:48:16.216Z,61.90
2017-01-22T01:48:47.475Z,62.13
2017-01-22T01:49:09.177Z,62.12
2017-01-22T01:49:30.879Z,62.09
2017-01-22T01:49:57.388Z,62.10
2017-01-22T01:50:19.167Z,62.10
2017-01-22T01:50:40.918Z,62.12
2017-01-22T01:51:12.173Z,62.08
2017-01-22T01:51:33.897Z,62.16
2017-01-22T01:52:05.148Z,62.22
2017-01-22T01:52:26.892Z,62.19
2017-01-22T01:53:38.956Z,62.25
2017-01-22T01:54:00.685Z,62.09
2017-01-22T01:55:03.202Z,62.07
2017-01-22T01:55:24.924Z,62.08
2017-01-22T01:56:28.000Z,62.16
2017-01-22T01:56:49.701Z,62.21
2017-01-22T01:57:16.191Z,62.17
2017-01-22T01:57:37.897Z,62.13
2017-01-22T01:58:04.389Z,62.21
2017-01-22T01:58:26.086Z,62.26
2017-01-22T01:59:29.206Z,62.34
2017-01-22T01:59:55.712Z,62.43
2017-01-22T02:01:39.065Z,62.27
2017-01-22T02:02:00.780Z,62.31
2017-01-22T02:03:03.881Z,62.30
2017-01-22T02:03:25.596Z,62.35
2017-01-22T02:03:52.095Z,62.31
2017-01-22T02:04:13.813Z,62.42
2017-01-22T02:04:40.304Z,62.48
2017-01-22T02:05:02.009Z,62.37
2017-01-22T02:06:04.516Z,62.52
2017-01-22T02:06:26.236Z,62.66
2017-01-22T02:06:47.981Z,62.66
2017-01-22T02:07:14.486Z,62.82
2017-01-22T02:07:36.201Z,62.87
2017-01-22T02:08:48.268Z,62.86
2017-01-22T02:09:10.022Z,62.83
2017-01-22T02:09:31.745Z,62.82
2017-01-22T02:09:53.455Z,62.71
2017-01-22T02:10:15.156Z,62.79
2017-01-22T02:11:18.252Z,62.68
2017-01-22T02:11:39.977Z,62.72
2017-01-22T02:12:01.731Z,62.64
2017-01-22T02:12:32.975Z,62.64
2017-01-22T02:12:54.713Z,62.74
2017-01-22T02:13:57.795Z,62.75
2017-01-22T02:14:19.510Z,62.80
2017-01-22T02:14:41.203Z,62.75
2017-01-22T02:15:07.696Z,62.76
2017-01-22T02:15:29.404Z,62.71
2017-01-22T02:15:51.110Z,62.64
2017-01-22T02:16:17.600Z,62.47
2017-01-22T02:16:39.312Z,62.47
2017-01-22T02:17:01.017Z,62.53
2017-01-22T02:17:22.722Z,62.65
2017-01-22T02:17:44.425Z,62.69
2017-01-22T02:18:06.153Z,62.80
2017-01-22T02:18:27.858Z,62.85
2017-01-22T02:18:49.568Z,62.96
2017-01-22T02:19:11.279Z,63.07
2017-01-22T02:19:32.985Z,63.01
2017-01-22T02:19:54.697Z,62.94
2017-01-22T02:20:16.385Z,62.75
2017-01-22T02:20:42.869Z,62.75
2017-01-22T02:21:04.575Z,62.77
2017-01-22T02:21:26.287Z,62.81
2017-01-22T02:22:29.369Z,63.01
2017-01-22T02:22:51.066Z,63.01
2017-01-22T02:23:12.799Z,63.13
2017-01-22T02:23:34.496Z,63.25
2017-01-22T02:23:56.201Z,63.38
2017-01-22T02:24:17.906Z,63.32
2017-01-22T02:24:44.377Z,63.38
2017-01-22T02:25:06.076Z,63.28
2017-01-22T02:25:32.546Z,63.31
2017-01-22T02:25:54.255Z,63.32
2017-01-22T02:26:20.728Z,63.44
2017-01-22T02:26:42.452Z,63.42
2017-01-22T02:27:04.152Z,63.27
2017-01-22T02:27:25.854Z,63.27
2017-01-22T02:27:47.561Z,63.29
2017-01-22T02:28:14.073Z,63.30
2017-01-22T02:28:35.782Z,63.38
2017-01-22T02:28:57.500Z,63.36
2017-01-22T02:29:19.205Z,63.35
2017-01-22T02:29:45.692Z,63.14
2017-01-22T02:30:07.401Z,63.03
2017-01-22T02:30:29.108Z,62.96
2017-01-22T02:30:55.580Z,62.88
2017-01-22T02:31:17.292Z,62.94
2017-01-22T02:31:39.001Z,63.05
2017-01-22T02:32:00.706Z,63.04
2017-01-22T02:32:22.428Z,63.14
2017-01-22T02:32:44.140Z,63.11
2017-01-22T02:33:15.401Z,62.97
2017-01-22T02:33:37.100Z,62.89
2017-01-22T02:34:40.194Z,63.22
2017-01-22T02:35:01.893Z,63.20
2017-01-22T02:36:04.988Z,63.25
2017-01-22T02:36:26.687Z,63.35
2017-01-22T02:36:48.383Z,63.26
2017-01-22T02:37:14.872Z,63.19
2017-01-22T02:37:36.578Z,63.25
2017-01-22T02:37:58.381Z,63.33
2017-01-22T02:38:20.117Z,63.33
2017-01-22T02:38:41.827Z,63.36
2017-01-22T02:39:08.300Z,63.46
2017-01-22T02:39:30.005Z,63.39
2017-01-22T02:40:01.257Z,63.49
2017-01-22T02:40:22.959Z,63.49
2017-01-22T02:40:44.758Z,63.44
2017-01-22T02:41:11.234Z,63.54
2017-01-22T02:41:32.936Z,63.52
2017-01-22T02:41:59.406Z,63.42
2017-01-22T02:42:21.128Z,63.42
2017-01-22T02:42:47.601Z,63.43
2017-01-22T02:43:09.310Z,63.43
2017-01-22T02:43:35.801Z,63.41
2017-01-22T02:43:57.503Z,63.34
2017-01-22T02:44:23.972Z,63.32
2017-01-22T02:44:45.698Z,63.16
2017-01-22T02:45:07.416Z,63.12
2017-01-22T02:45:29.121Z,63.27
2017-01-22T02:45:50.837Z,63.16
2017-01-22T02:46:12.542Z,63.18
2017-01-22T02:46:41.234Z,63.11
2017-01-22T02:47:02.939Z,63.12
2017-01-22T02:47:24.649Z,63.03
2017-01-22T02:47:46.465Z,63.13
2017-01-22T02:48:08.169Z,63.23
2017-01-22T02:48:29.869Z,63.16
2017-01-22T02:48:56.363Z,63.01
2017-01-22T02:49:18.072Z,63.05
2017-01-22T02:49:39.778Z,63.06
2017-01-22T02:50:01.483Z,63.05
2017-01-22T02:50:23.192Z,63.03
2017-01-22T02:50:44.900Z,62.97
2017-01-22T02:51:11.400Z,63.02
2017-01-22T02:51:33.103Z,63.14
2017-01-22T02:51:54.811Z,63.18
2017-01-22T02:52:16.520Z,63.21
2017-01-22T02:52:38.225Z,63.37
2017-01-22T02:52:59.938Z,63.21
2017-01-22T02:53:21.649Z,63.32
2017-01-22T02:53:43.371Z,63.31
2017-01-22T02:54:05.081Z,63.35
2017-01-22T02:54:26.801Z,63.31
2017-01-22T02:54:48.497Z,63.32
2017-01-22T02:55:15.051Z,63.25
2017-01-22T02:55:36.753Z,63.05
2017-01-22T02:56:08.021Z,62.93
2017-01-22T02:56:29.726Z,62.89
2017-01-22T02:56:51.439Z,62.91
2017-01-22T02:57:13.156Z,63.09
2017-01-22T02:57:34.853Z,63.18
2017-01-22T02:58:06.108Z,62.97
2017-01-22T02:58:27.896Z,63.06
2017-01-22T02:58:49.643Z,63.09
2017-01-22T02:59:16.139Z,63.09
2017-01-22T02:59:37.841Z,63.15
2017-01-22T02:59:59.550Z,63.08
2017-01-22T03:00:26.043Z,63.02
2017-01-22T03:00:47.739Z,63.01
2017-01-22T03:01:09.448Z,62.97
2017-01-22T03:01:40.702Z,63.14
2017-01-22T03:02:02.398Z,63.16
2017-01-22T03:02:33.656Z,63.02
2017-01-22T03:02:55.351Z,62.98
2017-01-22T03:03:17.064Z,62.87
2017-01-22T03:03:38.776Z,62.82
2017-01-22T03:04:00.507Z,62.84
2017-01-22T03:04:26.993Z,62.77
2017-01-22T03:04:48.692Z,62.72
2017-01-22T03:05:10.401Z,62.79
2017-01-22T03:05:32.126Z,62.76
2017-01-22T03:05:53.828Z,62.93
2017-01-22T03:06:15.528Z,62.89
2017-01-22T03:06:37.237Z,63.06
2017-01-22T03:06:58.942Z,63.22
2017-01-22T03:07:20.651Z,63.19
2017-01-22T03:07:42.362Z,63.09
2017-01-22T03:08:08.830Z,62.97
2017-01-22T03:08:30.533Z,63.14
2017-01-22T03:08:52.248Z,63.05
2017-01-22T03:09:18.737Z,62.98
2017-01-22T03:09:40.437Z,62.98
2017-01-22T03:10:38.772Z,63.00
2017-01-22T03:11:00.472Z,63.06
2017-01-22T03:11:22.184Z,63.04
2017-01-22T03:12:20.469Z,62.88
2017-01-22T03:12:42.177Z,63.04
2017-01-22T03:13:45.247Z,63.07
2017-01-22T03:14:06.949Z,63.19
2017-01-22T03:14:28.671Z,63.26
2017-01-22T03:14:55.163Z,63.35
2017-01-22T03:15:16.862Z,63.44
2017-01-22T03:15:38.580Z,63.55
2017-01-22T03:16:05.054Z,63.50
2017-01-22T03:16:26.763Z,63.65
2017-01-22T03:16:48.472Z,63.59
2017-01-22T03:17:10.178Z,63.58
2017-01-22T03:17:31.877Z,63.77
2017-01-22T03:18:03.134Z,63.90
2017-01-22T03:18:24.850Z,63.72
2017-01-22T03:18:46.558Z,63.71
2017-01-22T03:19:08.299Z,63.86
2017-01-22T03:19:30.008Z,63.77
2017-01-22T03:19:56.490Z,63.64
2017-01-22T03:20:18.191Z,63.50
2017-01-22T03:20:44.671Z,63.41
2017-01-22T03:21:06.389Z,63.21
2017-01-22T03:21:28.121Z,63.17
2017-01-22T03:21:49.816Z,63.21
2017-01-22T03:22:11.531Z,63.11
2017-01-22T03:22:33.234Z,62.99
2017-01-22T03:22:59.714Z,62.96
2017-01-22T03:23:21.410Z,62.91
2017-01-22T03:23:47.892Z,63.10
2017-01-22T03:24:09.618Z,63.26
2017-01-22T03:24:36.094Z,63.30
2017-01-22T03:24:57.804Z,63.35
2017-01-22T03:25:24.284Z,63.41
2017-01-22T03:25:45.995Z,63.46
2017-01-22T03:26:17.260Z,63.46
2017-01-22T03:26:43.768Z,63.56
2017-01-22T03:27:10.332Z,63.47
2017-01-22T03:27:32.047Z,63.52
2017-01-22T03:27:58.549Z,63.69
2017-01-22T03:28:20.271Z,63.74
2017-01-22T03:28:42.008Z,63.73
2017-01-22T03:29:08.491Z,63.86
2017-01-22T03:29:30.274Z,63.98
2017-01-22T03:30:01.551Z,64.12
2017-01-22T03:30:23.346Z,64.18
2017-01-22T03:30:54.617Z,64.08
2017-01-22T03:31:47.705Z,63.92
2017-01-22T03:32:09.431Z,63.82
2017-01-22T03:32:35.929Z,63.77
2017-01-22T03:32:57.672Z,63.81
2017-01-22T03:33:24.168Z,63.73
2017-01-22T03:33:45.877Z,63.75
2017-01-22T03:34:12.408Z,63.95
2017-01-22T03:34:34.140Z,64.06
2017-01-22T03:35:00.629Z,64.05
2017-01-22T03:35:22.380Z,64.21
2017-01-22T03:35:44.120Z,64.22
2017-01-22T03:36:10.630Z,64.21
2017-01-22T03:36:35.021Z,64.20
2017-01-22T03:37:06.444Z,64.19
2017-01-22T03:37:28.159Z,64.17
2017-01-22T03:38:35.455Z,64.38
2017-01-22T03:38:57.167Z,64.26
2017-01-22T03:39:23.653Z,64.22
2017-01-22T03:39:45.359Z,64.17
2017-01-22T03:40:07.097Z,64.27
2017-01-22T03:40:38.417Z,63.96
2017-01-22T03:41:00.150Z,63.85
2017-01-22T03:41:26.629Z,63.75
2017-01-22T03:41:48.335Z,63.70
2017-01-22T03:42:10.104Z,63.80
2017-01-22T03:42:41.376Z,63.83
2017-01-22T03:43:03.106Z,63.95
2017-01-22T03:43:29.624Z,64.11
2017-01-22T03:43:51.324Z,64.20
2017-01-22T03:44:13.045Z,64.21
2017-01-22T03:44:34.868Z,64.20
2017-01-22T03:44:56.591Z,64.22
2017-01-22T03:45:23.077Z,64.26
2017-01-22T03:45:44.786Z,64.30
2017-01-22T03:46:06.501Z,64.40
2017-01-22T03:46:33.005Z,64.35
2017-01-22T03:46:54.710Z,64.39
2017-01-22T03:47:16.418Z,64.53
2017-01-22T03:47:47.670Z,64.29
2017-01-22T03:48:09.455Z,64.23
2017-01-22T03:48:31.189Z,64.22
2017-01-22T03:49:02.477Z,64.38
2017-01-22T03:49:24.230Z,64.45
2017-01-22T03:50:36.287Z,64.18
2017-01-22T03:50:58.002Z,64.16
2017-01-22T03:52:01.098Z,64.59
2017-01-22T03:52:22.824Z,64.58
2017-01-22T03:52:44.537Z,64.53
2017-01-22T03:53:11.049Z,64.39
2017-01-22T03:53:32.761Z,64.34
2017-01-22T03:53:54.489Z,64.30
2017-01-22T03:54:16.230Z,64.34
2017-01-22T03:54:37.958Z,64.53
2017-01-22T03:55:09.257Z,64.61
2017-01-22T03:55:30.985Z,64.70
2017-01-22T03:55:57.490Z,64.83
2017-01-22T03:56:19.212Z,64.76
2017-01-22T03:56:45.738Z,64.79
2017-01-22T03:57:07.462Z,64.72
2017-01-22T03:57:33.993Z,64.67
2017-01-22T03:57:55.711Z,64.61
2017-01-22T03:58:22.252Z,64.54
2017-01-22T03:58:43.967Z,64.59
2017-01-22T03:59:05.714Z,64.58
2017-01-22T04:00:08.266Z,64.56
2017-01-22T04:00:30.044Z,64.55
2017-01-22T04:00:51.778Z,64.73
2017-01-22T04:01:23.058Z,64.82
2017-01-22T04:01:44.870Z,64.94
2017-01-22T04:02:16.189Z,65.21
2017-01-22T04:02:37.900Z,65.37
2017-01-22T04:03:04.416Z,65.35
2017-01-22T04:03:26.147Z,65.36
2017-01-22T04:03:57.407Z,65.29
2017-01-22T04:04:19.165Z,65.22
2017-01-22T04:04:40.944Z,65.37
2017-01-22T04:05:07.523Z,65.23
2017-01-22T04:05:29.290Z,65.13
2017-01-22T04:05:50.991Z,65.14
2017-01-22T04:06:17.600Z,65.26
2017-01-22T04:06:39.308Z,65.19
2017-01-22T04:07:10.585Z,65.20
2017-01-22T04:07:32.337Z,65.28
2017-01-22T04:08:03.603Z,65.48
2017-01-22T04:08:25.289Z,65.56
2017-01-22T04:09:28.403Z,65.13
2017-01-22T04:09:50.172Z,64.92
2017-01-22T04:10:53.293Z,65.14
2017-01-22T04:11:15.033Z,65.32
2017-01-22T04:11:46.285Z,65.37
2017-01-22T04:12:07.997Z,65.37
2017-01-22T04:12:39.273Z,65.42
2017-01-22T04:13:01.001Z,65.46
2017-01-22T04:13:32.271Z,65.44
2017-01-22T04:13:56.595Z,65.39
2017-01-22T04:14:23.104Z,65.26
2017-01-22T04:14:44.825Z,65.18
2017-01-22T04:15:11.316Z,65.14
2017-01-22T04:15:33.056Z,65.09
2017-01-22T04:15:54.804Z,64.94
2017-01-22T04:16:21.299Z,64.88
2017-01-22T04:16:43.007Z,65.05
2017-01-22T04:17:04.730Z,65.16
2017-01-22T04:17:36.003Z,65.33
2017-01-22T04:17:57.718Z,65.40
2017-01-22T04:18:24.211Z,65.62
2017-01-22T04:18:45.981Z,65.67
2017-01-22T04:19:07.792Z,65.78
2017-01-22T04:19:34.279Z,65.66
2017-01-22T04:20:41.565Z,65.79
2017-01-22T04:21:03.280Z,65.76
2017-01-22T04:22:10.579Z,65.76
2017-01-22T04:22:32.295Z,65.70
2017-01-22T04:23:34.835Z,65.70
2017-01-22T04:23:56.566Z,65.66
2017-01-22T04:24:18.291Z,65.75
2017-01-22T04:24:49.603Z,65.89
2017-01-22T04:25:11.353Z,66.05
2017-01-22T04:26:14.512Z,66.21
2017-01-22T04:26:36.227Z,66.19
2017-01-22T04:26:57.933Z,65.95
2017-01-22T04:27:29.200Z,65.91
2017-01-22T04:27:50.915Z,65.94
2017-01-22T04:28:12.640Z,65.86
2017-01-22T04:28:44.021Z,65.91
2017-01-22T04:29:05.748Z,66.01
2017-01-22T04:30:08.919Z,66.03
2017-01-22T04:30:30.652Z,65.89
2017-01-22T04:30:52.375Z,66.01
2017-01-22T04:31:14.112Z,66.04
2017-01-22T04:31:35.811Z,65.92
2017-01-22T04:32:02.318Z,66.02
2017-01-22T04:32:24.080Z,66.04
2017-01-22T04:32:55.367Z,65.98
2017-01-22T04:33:17.098Z,66.18
2017-01-22T04:33:38.832Z,66.22
2017-01-22T04:34:05.315Z,66.24
2017-01-22T04:34:27.070Z,66.16
2017-01-22T04:34:55.683Z,66.15
2017-01-22T04:35:17.475Z,66.30
2017-01-22T04:35:48.752Z,66.50
2017-01-22T04:36:10.524Z,66.28
2017-01-22T04:36:41.804Z,66.33
2017-01-22T04:37:03.517Z,66.17
2017-01-22T04:37:25.239Z,66.03
2017-01-22T04:37:56.509Z,65.97
2017-01-22T04:38:23.165Z,66.02
2017-01-22T04:39:25.690Z,65.99
2017-01-22T04:39:52.238Z,65.89
2017-01-22T04:40:13.942Z,65.94
2017-01-22T04:40:35.667Z,65.97
2017-01-22T04:40:57.386Z,66.02
2017-01-22T04:41:19.168Z,66.03
2017-01-22T04:41:45.655Z,66.00
2017-01-22T04:42:07.370Z,66.06
2017-01-22T04:42:33.956Z,65.97
2017-01-22T04:42:55.671Z,66.06
2017-01-22T04:44:03.035Z,66.14
2017-01-22T04:44:24.842Z,66.17
2017-01-22T04:44:46.603Z,66.24
2017-01-22T04:45:08.327Z,66.19
2017-01-22T04:45:30.135Z,66.08
2017-01-22T04:46:01.421Z,66.04
2017-01-22T04:46:23.127Z,66.09
2017-01-22T04:46:44.942Z,66.11
2017-01-22T04:47:06.647Z,66.10
2017-01-22T04:47:28.358Z,66.05
2017-01-22T04:47:50.097Z,65.97
2017-01-22T04:48:16.644Z,66.02
2017-01-22T04:48:38.360Z,66.02
2017-01-22T04:49:00.064Z,66.07
2017-01-22T04:49:26.563Z,66.25
2017-01-22T04:49:48.365Z,66.33
2017-01-22T04:50:50.874Z,66.32
2017-01-22T04:51:12.657Z,66.48
2017-01-22T04:51:34.368Z,66.55
2017-01-22T04:52:00.849Z,66.55
2017-01-22T04:52:22.567Z,66.45
2017-01-22T04:52:49.130Z,66.20
2017-01-22T04:53:10.839Z,66.21
2017-01-22T04:53:32.557Z,66.33
2017-01-22T04:53:59.034Z,66.43
2017-01-22T04:54:20.839Z,66.36
2017-01-22T04:54:47.329Z,66.26
2017-01-22T04:55:09.031Z,66.09
2017-01-22T04:55:35.588Z,65.98
2017-01-22T04:55:57.297Z,66.01
2017-01-22T04:56:23.785Z,66.09
2017-01-22T04:56:45.514Z,66.11
2017-01-22T04:57:12.048Z,66.16
2017-01-22T04:57:33.755Z,66.21
2017-01-22T04:57:55.492Z,66.40
2017-01-22T04:58:58.839Z,66.22
2017-01-22T04:59:20.539Z,66.11
2017-01-22T04:59:47.112Z,66.33
2017-01-22T05:00:08.833Z,66.48
2017-01-22T05:00:30.555Z,66.47
2017-01-22T05:00:57.111Z,66.24
2017-01-22T05:01:18.836Z,66.23
2017-01-22T05:01:40.542Z,66.26
2017-01-22T05:02:11.943Z,66.10
2017-01-22T05:02:43.645Z,66.03
2017-01-22T05:03:05.348Z,66.00
2017-01-22T05:03:27.154Z,66.14
2017-01-22T05:03:53.639Z,66.40
2017-01-22T05:04:15.343Z,66.56
2017-01-22T05:04:41.883Z,66.75
2017-01-22T05:05:03.594Z,66.80
2017-01-22T05:05:30.073Z,66.79
2017-01-22T05:05:51.806Z,66.73
2017-01-22T05:06:18.353Z,66.59
2017-01-22T05:06:40.058Z,66.53
2017-01-22T05:07:06.534Z,66.66
2017-01-22T05:07:28.244Z,66.81
2017-01-22T05:07:50.045Z,66.81
2017-01-22T05:08:11.767Z,66.76
2017-01-22T05:08:38.256Z,66.75
2017-01-22T05:08:59.974Z,66.75
2017-01-22T05:09:21.808Z,66.72
2017-01-22T05:09:48.291Z,66.69
2017-01-22T05:10:10.024Z,66.50
2017-01-22T05:10:31.730Z,66.34
2017-01-22T05:10:58.291Z,66.36
2017-01-22T05:11:19.993Z,66.18
2017-01-22T05:11:41.715Z,66.36
2017-01-22T05:12:03.433Z,66.46
2017-01-22T05:12:25.225Z,66.49
2017-01-22T05:12:51.724Z,66.57
2017-01-22T05:13:13.426Z,66.66
2017-01-22T05:13:44.678Z,66.84
2017-01-22T05:14:06.476Z,66.88
2017-01-22T05:14:32.988Z,67.00
2017-01-22T05:14:54.693Z,66.99
2017-01-22T05:15:16.498Z,66.85
2017-01-22T05:15:47.762Z,66.89
2017-01-22T05:16:09.466Z,66.83
2017-01-22T05:16:40.719Z,66.67
2017-01-22T05:17:02.502Z,66.67
2017-01-22T05:17:28.987Z,66.61
2017-01-22T05:17:50.702Z,66.55
2017-01-22T05:18:53.902Z,66.61
2017-01-22T05:19:15.608Z,66.84
2017-01-22T05:20:14.024Z,66.91
2017-01-22T05:20:35.733Z,66.74
2017-01-22T05:20:57.444Z,66.64
2017-01-22T05:21:24.004Z,66.57
2017-01-22T05:21:45.710Z,66.83
2017-01-22T05:22:07.418Z,66.84
2017-01-22T05:23:09.956Z,66.96
2017-01-22T05:23:36.452Z,66.80
2017-01-22T05:23:58.151Z,66.90
2017-01-22T05:24:24.711Z,66.95
2017-01-22T05:24:46.432Z,67.07
2017-01-22T05:25:12.920Z,67.06
2017-01-22T05:25:34.628Z,66.92
2017-01-22T05:26:01.185Z,66.83
2017-01-22T05:26:22.890Z,66.94
2017-01-22T05:26:44.589Z,66.86
2017-01-22T05:27:47.927Z,66.73
2017-01-22T05:28:09.629Z,66.87
2017-01-22T05:28:36.202Z,66.93
2017-01-22T05:28:57.914Z,66.96
2017-01-22T05:29:29.178Z,66.98
2017-01-22T05:29:50.993Z,67.00
2017-01-22T05:30:12.718Z,67.02
2017-01-22T05:30:34.436Z,67.06
2017-01-22T05:30:56.156Z,67.11
2017-01-22T05:31:59.437Z,66.89
2017-01-22T05:32:21.169Z,66.74
2017-01-22T05:32:42.919Z,66.82
2017-01-22T05:33:04.708Z,66.96
2017-01-22T05:33:26.429Z,67.12
2017-01-22T05:33:57.700Z,67.08
2017-01-22T05:34:19.502Z,66.99
2017-01-22T05:34:50.765Z,66.94
2017-01-22T05:35:12.474Z,66.89
2017-01-22T05:35:39.043Z,66.82
2017-01-22T05:36:00.762Z,66.75
2017-01-22T05:37:03.923Z,66.81
2017-01-22T05:37:25.627Z,66.82
2017-01-22T05:37:52.115Z,66.80
2017-01-22T05:38:13.834Z,66.73
2017-01-22T05:38:45.231Z,66.71
2017-01-22T05:39:06.861Z,66.57
2017-01-22T05:39:33.347Z,66.49
2017-01-22T05:39:55.050Z,66.55
2017-01-22T05:41:00.881Z,67.06
2017-01-22T05:41:22.594Z,67.11
2017-01-22T05:41:44.416Z,67.19
2017-01-22T05:42:10.909Z,67.33